createdAt,value
2018-09-24T00:02:02.651Z,9.83
2018-09-24T00:04:31.157Z,9.82
2018-09-24T00:06:59.677Z,9.93
2018-09-24T00:09:28.267Z,9.93
2018-09-24T00:11:56.801Z,9.86
2018-09-24T00:14:30.527Z,9.87
2018-09-24T00:17:00.039Z,9.86
2018-09-24T00:19:29.535Z,9.94
2018-09-24T00:21:58.056Z,9.96
2018-09-24T00:24:27.528Z,9.93
2018-09-24T00:26:56.186Z,9.95
2018-09-24T00:29:28.207Z,9.93
2018-09-24T00:31:56.723Z,9.91
2018-09-24T00:34:25.284Z,9.90
2018-09-24T00:36:53.812Z,9.82
2018-09-24T00:39:22.338Z,9.70
2018-09-24T00:41:50.884Z,9.63
2018-09-24T00:44:19.407Z,9.52
2018-09-24T00:46:49.979Z,9.50
2018-09-24T00:49:18.541Z,9.41
2018-09-24T00:51:47.041Z,9.26
2018-09-24T00:54:15.551Z,9.21
2018-09-24T00:56:44.059Z,9.13
2018-09-24T00:59:12.600Z,8.99
2018-09-24T01:01:41.110Z,9.09
2018-09-24T01:04:09.638Z,8.95
2018-09-24T01:06:38.144Z,8.90
2018-09-24T01:09:07.650Z,9.00
2018-09-24T01:11:36.159Z,8.90
2018-09-24T01:14:05.648Z,9.01
2018-09-24T01:16:35.144Z,8.99
2018-09-24T01:19:03.798Z,8.98
2018-09-24T01:21:32.325Z,8.97
2018-09-24T01:24:00.843Z,8.98
2018-09-24T01:26:29.350Z,9.11
2018-09-24T01:28:57.892Z,9.19
2018-09-24T01:31:26.396Z,9.17
2018-09-24T01:33:55.902Z,9.24
2018-09-24T01:36:24.413Z,9.12
2018-09-24T01:38:52.946Z,9.06
2018-09-24T01:41:21.463Z,8.99
2018-09-24T01:43:50.017Z,8.97
2018-09-24T01:46:18.540Z,8.85
2018-09-24T01:48:47.046Z,8.79
2018-09-24T01:51:15.570Z,8.67
2018-09-24T01:53:44.153Z,8.75
2018-09-24T01:56:12.676Z,8.75
2018-09-24T01:58:42.176Z,8.70
2018-09-24T02:01:10.707Z,8.69
2018-09-24T02:03:39.331Z,8.67
2018-09-24T02:06:07.863Z,8.69
2018-09-24T02:08:36.384Z,8.60
2018-09-24T02:14:09.599Z,8.39
2018-09-24T02:16:38.112Z,8.34
2018-09-24T02:19:06.781Z,8.27
2018-09-24T02:21:40.184Z,8.28
2018-09-24T02:24:08.708Z,8.30
2018-09-24T02:26:37.259Z,8.25
2018-09-24T02:29:05.804Z,8.21
2018-09-24T02:31:34.317Z,8.19
2018-09-24T02:34:04.781Z,8.08
2018-09-24T02:36:33.313Z,7.92
2018-09-24T02:39:01.836Z,7.84
2018-09-24T02:41:31.361Z,7.83
2018-09-24T02:44:00.037Z,7.79
2018-09-24T02:46:28.568Z,7.82
2018-09-24T02:49:00.097Z,7.81
2018-09-24T02:51:30.628Z,7.77
2018-09-24T02:53:59.140Z,7.81
2018-09-24T02:56:27.785Z,7.72
2018-09-24T02:58:57.324Z,7.71
2018-09-24T03:01:26.896Z,7.74
2018-09-24T03:03:56.359Z,7.69
2018-09-24T03:06:24.871Z,7.67
2018-09-24T03:08:53.418Z,7.68
2018-09-24T03:11:22.055Z,7.77
2018-09-24T03:13:51.498Z,7.69
2018-09-24T03:16:20.013Z,7.79
2018-09-24T03:18:48.539Z,7.74
2018-09-24T03:21:17.056Z,7.84
2018-09-24T03:23:45.624Z,8.04
2018-09-24T03:26:14.153Z,7.93
2018-09-24T03:28:42.667Z,7.95
2018-09-24T03:31:12.255Z,7.98
2018-09-24T03:33:40.772Z,8.03
2018-09-24T03:36:09.310Z,7.95
2018-09-24T03:38:37.850Z,7.95
2018-09-24T03:41:06.380Z,7.85
2018-09-24T03:43:34.887Z,7.82
2018-09-24T03:46:03.547Z,7.82
2018-09-24T03:48:32.064Z,7.75
2018-09-24T03:51:01.527Z,7.74
2018-09-24T03:53:31.355Z,7.72
2018-09-24T03:55:59.882Z,7.69
2018-09-24T03:58:28.401Z,7.58
2018-09-24T04:00:56.917Z,7.44
2018-09-24T04:03:26.428Z,7.28
2018-09-24T04:06:00.615Z,7.37
2018-09-24T04:08:34.855Z,7.47
2018-09-24T04:11:09.133Z,7.49
2018-09-24T04:13:43.299Z,7.44
2018-09-24T04:16:18.316Z,7.28
2018-09-24T04:18:53.569Z,7.39
2018-09-24T04:21:28.601Z,7.35
2018-09-24T04:24:03.652Z,7.46
2018-09-24T04:26:37.899Z,7.51
2018-09-24T04:29:11.995Z,7.57
2018-09-24T04:31:46.084Z,7.64
2018-09-24T04:34:20.167Z,7.70
2018-09-24T04:36:54.261Z,7.66
2018-09-24T04:39:28.453Z,7.75
2018-09-24T04:42:02.652Z,7.77
2018-09-24T04:44:36.795Z,7.73
2018-09-24T04:47:10.863Z,7.65
2018-09-24T04:49:44.999Z,7.66
2018-09-24T04:52:26.272Z,7.68
2018-09-24T04:55:00.372Z,7.76
2018-09-24T04:57:34.407Z,7.83
2018-09-24T05:00:09.542Z,7.85
2018-09-24T05:02:43.639Z,7.83
2018-09-24T05:05:17.836Z,7.83
2018-09-24T05:07:52.859Z,7.82
2018-09-24T05:10:26.883Z,7.76
2018-09-24T05:13:01.006Z,7.60
2018-09-24T05:15:35.095Z,7.55
2018-09-24T05:18:09.184Z,7.64
2018-09-24T05:20:43.225Z,7.63
2018-09-24T05:23:17.300Z,7.56
2018-09-24T05:25:51.407Z,7.59
2018-09-24T05:28:27.652Z,7.58
2018-09-24T05:31:01.786Z,7.68
2018-09-24T05:33:35.907Z,7.74
2018-09-24T05:36:09.945Z,7.85
2018-09-24T05:38:44.015Z,7.83
2018-09-24T05:41:18.123Z,7.93
2018-09-24T05:43:52.268Z,7.97
2018-09-24T05:46:26.356Z,7.90
2018-09-24T05:49:00.448Z,8.02
2018-09-24T05:51:35.476Z,8.05
2018-09-24T05:54:09.642Z,8.11
2018-09-24T05:56:43.868Z,8.16
2018-09-24T05:59:17.867Z,8.14
2018-09-24T06:01:52.244Z,8.20
2018-09-24T06:04:26.434Z,8.18
2018-09-24T06:07:00.474Z,8.33
2018-09-24T06:09:38.227Z,8.18
2018-09-24T06:12:12.460Z,7.90
2018-09-24T06:14:48.669Z,7.86
2018-09-24T06:17:22.895Z,7.77
2018-09-24T06:19:56.878Z,7.81
2018-09-24T06:22:32.123Z,7.77
2018-09-24T06:25:06.368Z,7.86
2018-09-24T06:27:45.676Z,8.00
2018-09-24T06:30:21.824Z,8.04
2018-09-24T06:32:55.963Z,8.21
2018-09-24T06:35:30.180Z,8.20
2018-09-24T06:38:04.411Z,8.35
2018-09-24T06:40:38.513Z,8.41
2018-09-24T06:43:12.729Z,8.48
2018-09-24T06:45:46.867Z,8.61
2018-09-24T06:48:20.907Z,8.75
2018-09-24T06:50:56.947Z,8.73
2018-09-24T06:53:31.092Z,8.76
2018-09-24T06:56:05.304Z,8.85
2018-09-24T06:58:41.440Z,8.86
2018-09-24T07:01:16.016Z,8.97
2018-09-24T07:03:51.531Z,8.92
2018-09-24T07:06:25.672Z,8.98
2018-09-24T07:08:59.831Z,8.94
2018-09-24T07:11:36.785Z,9.08
2018-09-24T07:14:10.934Z,9.14
2018-09-24T07:16:44.967Z,8.87
2018-09-24T07:19:19.898Z,9.26
2018-09-24T07:21:54.155Z,9.28
2018-09-24T07:24:29.337Z,9.27
2018-09-24T07:27:03.712Z,8.99
2018-09-24T07:29:38.981Z,8.98
2018-09-24T07:32:13.033Z,8.99
2018-09-24T07:34:49.224Z,9.36
2018-09-24T07:37:23.327Z,9.78
2018-09-24T07:39:57.484Z,10.00
2018-09-24T07:42:31.580Z,10.29
2018-09-24T07:45:05.857Z,10.08
2018-09-24T07:47:39.938Z,9.31
2018-09-24T07:50:14.930Z,9.24
2018-09-24T07:52:49.046Z,9.19
2018-09-24T07:55:23.132Z,9.09
2018-09-24T07:57:57.215Z,9.32
2018-09-24T08:00:31.405Z,9.62
2018-09-24T08:03:05.491Z,9.72
2018-09-24T08:05:39.736Z,10.17
2018-09-24T08:08:13.974Z,10.73
2018-09-24T08:10:48.170Z,11.03
2018-09-24T08:13:22.265Z,10.66
2018-09-24T08:15:56.372Z,9.90
2018-09-24T08:18:30.587Z,9.83
2018-09-24T08:21:06.690Z,9.77
2018-09-24T08:23:40.806Z,10.19
2018-09-24T08:26:14.896Z,9.97
2018-09-24T08:28:49.079Z,10.13
2018-09-24T08:31:23.327Z,10.90
2018-09-24T08:33:57.266Z,11.55
2018-09-24T08:36:32.337Z,11.21
2018-09-24T08:39:06.468Z,10.73
2018-09-24T08:41:42.576Z,10.29
2018-09-24T08:44:17.772Z,10.00
2018-09-24T08:46:51.933Z,10.20
2018-09-24T08:49:26.408Z,11.02
2018-09-24T08:52:00.456Z,12.41
2018-09-24T08:54:34.678Z,13.91
2018-09-24T08:57:08.904Z,14.59
2018-09-24T08:59:42.954Z,15.97
2018-09-24T09:02:17.223Z,15.91
2018-09-24T09:04:51.276Z,14.80
2018-09-24T09:07:25.519Z,12.78
2018-09-24T09:10:00.781Z,11.67
2018-09-24T09:12:34.872Z,10.75
2018-09-24T09:15:10.885Z,13.05
2018-09-24T09:17:45.123Z,16.68
2018-09-24T09:20:19.166Z,18.30
2018-09-24T09:23:02.847Z,16.25
2018-09-24T09:25:37.421Z,15.21
2018-09-24T09:28:11.684Z,15.02
2018-09-24T09:30:45.755Z,14.44
2018-09-24T09:33:19.992Z,14.56
2018-09-24T09:35:54.128Z,12.98
2018-09-24T09:38:28.252Z,14.48
2018-09-24T09:41:03.366Z,17.52
2018-09-24T09:43:37.544Z,19.11
2018-09-24T09:46:11.643Z,19.57
2018-09-24T09:48:45.909Z,19.99
2018-09-24T09:51:20.944Z,21.63
2018-09-24T09:53:55.135Z,18.98
2018-09-24T09:56:29.198Z,16.48
2018-09-24T09:59:03.369Z,14.78
2018-09-24T10:01:37.435Z,14.50
2018-09-24T10:04:12.507Z,17.17
2018-09-24T10:06:48.740Z,19.79
2018-09-24T10:09:23.987Z,19.44
2018-09-24T10:12:00.158Z,16.16
2018-09-24T10:14:34.180Z,17.56
2018-09-24T10:17:08.244Z,18.83
2018-09-24T10:19:44.307Z,19.65
2018-09-24T10:22:18.415Z,17.30
2018-09-24T10:24:52.545Z,17.26
2018-09-24T10:27:26.799Z,17.42
2018-09-24T10:30:01.059Z,15.73
2018-09-24T10:32:35.116Z,13.49
2018-09-24T10:35:09.191Z,12.25
2018-09-24T10:37:48.117Z,11.45
2018-09-24T10:40:22.147Z,14.40
2018-09-24T10:42:57.090Z,18.82
2018-09-24T10:45:31.208Z,19.90
2018-09-24T10:48:05.468Z,21.93
2018-09-24T10:50:40.688Z,21.42
2018-09-24T10:53:14.944Z,20.28
2018-09-24T10:55:50.051Z,18.82
2018-09-24T10:58:24.273Z,16.34
2018-09-24T11:00:59.279Z,15.95
2018-09-24T11:03:33.424Z,18.37
2018-09-24T11:06:07.672Z,21.46
2018-09-24T11:08:42.262Z,22.57
2018-09-24T11:11:16.459Z,23.93
2018-09-24T11:13:51.704Z,21.41
2018-09-24T11:16:27.859Z,23.53
2018-09-24T11:19:02.878Z,20.51
2018-09-24T11:21:37.131Z,17.04
2018-09-24T11:24:11.236Z,17.54
2018-09-24T11:26:45.387Z,17.49
2018-09-24T11:29:19.509Z,20.42
2018-09-24T11:31:53.624Z,22.27
2018-09-24T11:34:27.675Z,21.73
2018-09-24T11:37:01.844Z,21.22
2018-09-24T11:39:35.909Z,18.58
2018-09-24T11:42:10.152Z,17.52
2018-09-24T11:44:44.338Z,21.39
2018-09-24T11:47:18.697Z,23.64
2018-09-24T11:49:52.877Z,23.53
2018-09-24T11:52:28.107Z,22.74
2018-09-24T11:55:02.305Z,23.03
2018-09-24T11:57:36.357Z,20.64
2018-09-24T12:00:12.869Z,18.85
2018-09-24T12:07:22.417Z,16.42
2018-09-24T12:09:58.235Z,18.65
2018-09-24T12:12:33.527Z,19.06
2018-09-24T12:15:08.503Z,17.34
2018-09-24T12:17:43.758Z,16.56
2018-09-24T12:20:20.140Z,17.22
2018-09-24T12:23:00.256Z,16.69
2018-09-24T12:25:34.872Z,15.62
2018-09-24T12:28:09.491Z,15.41
2018-09-24T12:30:44.810Z,16.50
2018-09-24T12:33:19.232Z,16.47
2018-09-24T12:35:54.560Z,15.23
2018-09-24T12:38:29.160Z,15.50
2018-09-24T12:41:03.603Z,14.45
2018-09-24T12:43:38.158Z,14.89
2018-09-24T12:46:12.808Z,15.22
2018-09-24T12:54:07.960Z,16.24
2018-09-24T12:56:42.508Z,15.23
2018-09-24T12:59:16.944Z,15.15
2018-09-24T13:01:51.350Z,18.91
2018-09-24T13:04:25.929Z,18.13
2018-09-24T13:09:36.401Z,20.01
2018-09-24T13:12:11.066Z,19.63
2018-09-24T13:14:45.477Z,19.46
2018-09-24T13:20:00.708Z,15.67
2018-09-24T13:25:14.997Z,15.39
2018-09-24T13:27:49.631Z,14.85
2018-09-24T13:30:24.130Z,17.31
2018-09-24T13:32:58.679Z,21.17
2018-09-24T13:38:09.178Z,19.72
2018-09-24T13:43:21.539Z,15.70
2018-09-24T13:45:56.079Z,17.68
2018-09-24T13:48:30.620Z,21.63
2018-09-24T13:51:05.179Z,23.52
2018-09-24T13:53:43.554Z,25.58
2018-09-24T13:56:21.244Z,27.19
2018-09-24T14:01:31.565Z,24.99
2018-09-24T14:04:10.585Z,21.01
2018-09-24T14:12:01.611Z,15.69
2018-09-24T14:14:39.748Z,14.83
2018-09-24T14:17:14.387Z,15.02
2018-09-24T14:19:48.805Z,14.87
2018-09-24T14:22:23.227Z,14.46
2018-09-24T14:24:57.717Z,14.30
2018-09-24T14:35:19.881Z,14.15
2018-09-24T14:37:56.217Z,15.73
2018-09-24T14:40:32.818Z,18.20
2018-09-24T14:43:08.157Z,16.78
2018-09-24T14:45:42.541Z,15.07
2018-09-24T14:48:16.967Z,14.03
2018-09-24T14:50:52.622Z,13.41
2018-09-24T14:53:27.293Z,13.19
2018-09-24T14:56:01.805Z,13.25
2018-09-24T14:58:36.460Z,14.96
2018-09-24T15:01:13.242Z,16.30
2018-09-24T15:03:47.881Z,15.21
2018-09-24T15:06:22.422Z,14.09
2018-09-24T15:08:56.997Z,13.29
2018-09-24T15:14:07.315Z,12.68
2018-09-24T15:16:41.959Z,12.50
2018-09-24T15:19:20.470Z,12.77
2018-09-24T15:21:55.050Z,13.69
2018-09-24T15:27:07.551Z,15.26
2018-09-24T15:29:41.968Z,14.89
2018-09-24T15:32:16.621Z,14.62
2018-09-24T15:37:29.059Z,13.67
2018-09-24T15:40:03.505Z,13.00
2018-09-24T15:42:38.109Z,12.71
2018-09-24T15:45:13.443Z,12.38
2018-09-24T15:47:53.604Z,12.57
2018-09-24T15:50:28.149Z,12.58
2018-09-24T15:53:06.684Z,12.56
2018-09-24T15:58:17.080Z,12.33
2018-09-24T16:00:51.447Z,12.14
2018-09-24T16:03:26.011Z,11.98
2018-09-24T16:08:37.330Z,11.91
2018-09-24T16:13:52.524Z,11.69
2018-09-24T16:16:26.954Z,11.58
2018-09-24T16:21:43.148Z,11.69
2018-09-24T16:24:17.784Z,11.74
2018-09-24T16:34:47.510Z,12.10
2018-09-24T16:42:39.749Z,11.72
2018-09-24T16:45:14.393Z,11.33
2018-09-24T16:47:49.884Z,11.15
2018-09-24T16:50:24.440Z,10.91
2018-09-24T16:53:06.677Z,10.77
2018-09-24T16:55:44.400Z,10.62
2018-09-24T16:58:19.021Z,10.50
2018-09-24T17:00:54.757Z,10.26
2018-09-24T17:03:30.442Z,10.02
2018-09-24T17:06:04.881Z,9.73
2018-09-24T17:08:39.369Z,9.54
2018-09-24T17:11:13.988Z,9.25
2018-09-24T17:16:27.597Z,9.06
2018-09-24T17:19:02.120Z,8.88
2018-09-24T17:21:36.549Z,8.67
2018-09-24T17:24:11.926Z,8.53
2018-09-24T17:26:47.267Z,8.40
2018-09-24T17:32:00.905Z,8.26
2018-09-24T17:34:37.345Z,8.10
2018-09-24T17:37:11.867Z,8.02
2018-09-24T17:39:46.308Z,7.91
2018-09-24T17:42:20.893Z,7.90
2018-09-24T17:47:31.327Z,7.58
2018-09-24T17:50:06.113Z,7.52
2018-09-24T17:52:40.554Z,7.46
2018-09-24T17:55:15.049Z,7.39
2018-09-24T18:00:25.471Z,7.41
2018-09-24T18:03:00.142Z,7.32
2018-09-24T18:08:11.282Z,7.48
2018-09-24T18:10:45.868Z,7.32
2018-09-24T18:18:40.829Z,7.18
2018-09-24T18:21:15.295Z,6.95
2018-09-24T18:26:27.556Z,6.90
2018-09-24T18:29:02.017Z,6.73
2018-09-24T18:31:36.658Z,6.73
2018-09-24T18:34:11.217Z,6.74
2018-09-24T18:36:47.711Z,6.80
2018-09-24T18:39:22.316Z,6.73
2018-09-24T18:41:56.911Z,6.76
2018-09-24T18:44:31.373Z,6.92
2018-09-24T18:47:14.309Z,6.97
2018-09-24T18:49:48.833Z,7.18
2018-09-24T18:52:24.292Z,6.98
2018-09-24T18:54:58.961Z,6.76
2018-09-24T19:00:17.658Z,6.54
2018-09-24T19:02:54.145Z,6.36
2018-09-24T19:05:28.536Z,6.20
2018-09-24T19:08:02.954Z,6.11
2018-09-24T19:10:37.389Z,6.06
2018-09-24T19:13:11.822Z,6.06
2018-09-24T19:15:46.479Z,6.07
2018-09-24T19:18:21.904Z,6.10
2018-09-24T19:20:58.361Z,6.14
2018-09-24T19:23:34.712Z,6.17
2018-09-24T19:26:09.134Z,6.11
2018-09-24T19:28:43.593Z,6.12
2018-09-24T19:31:18.204Z,6.12
2018-09-24T19:33:53.064Z,6.08
2018-09-24T19:36:27.769Z,5.93
2018-09-24T19:39:02.457Z,5.87
2018-09-24T19:41:36.943Z,5.71
2018-09-24T19:44:11.601Z,5.67
2018-09-24T19:49:24.235Z,5.72
2018-09-24T19:54:36.160Z,5.83
2018-09-24T19:59:49.449Z,5.72
2018-09-24T20:05:01.292Z,5.74
2018-09-24T20:10:13.333Z,5.47
2018-09-24T20:12:50.010Z,5.52
2018-09-24T20:15:25.104Z,5.50
2018-09-24T20:20:37.761Z,5.53
2018-09-24T20:28:28.721Z,5.54
2018-09-24T20:31:03.344Z,5.63
2018-09-24T20:33:38.003Z,5.69
2018-09-24T20:36:12.440Z,5.70
2018-09-24T20:38:47.047Z,5.71
2018-09-24T20:41:21.474Z,5.76
2018-09-24T20:43:56.058Z,5.78
2018-09-24T20:46:30.517Z,5.69
2018-09-24T20:51:40.676Z,5.66
2018-09-24T20:54:15.161Z,5.61
2018-09-24T20:56:51.766Z,5.43
2018-09-24T20:59:27.378Z,5.30
2018-09-24T21:02:01.825Z,5.29
2018-09-24T21:04:36.312Z,5.19
2018-09-24T21:07:10.869Z,5.22
2018-09-24T21:09:45.369Z,5.07
2018-09-24T21:14:55.823Z,5.20
2018-09-24T21:17:30.369Z,5.25
2018-09-24T21:22:40.843Z,5.33
2018-09-24T21:25:15.420Z,5.39
2018-09-24T21:27:49.988Z,5.33
2018-09-24T21:33:00.168Z,5.40
2018-09-24T21:38:10.375Z,5.15
2018-09-24T21:40:45.811Z,5.07
2018-09-24T21:43:20.336Z,4.93
2018-09-24T21:45:54.762Z,4.98
2018-09-24T21:51:06.924Z,5.01
2018-09-24T21:53:41.410Z,5.05
2018-09-24T21:56:15.953Z,5.10
2018-09-24T21:58:50.568Z,5.10
2018-09-24T22:01:25.137Z,5.06
2018-09-24T22:03:59.693Z,5.10
2018-09-24T22:06:34.320Z,5.10
2018-09-24T22:09:08.912Z,5.13
2018-09-24T22:11:44.554Z,5.28
2018-09-24T22:14:18.981Z,5.30
2018-09-24T22:16:53.363Z,5.27
2018-09-24T22:19:27.817Z,5.23
2018-09-24T22:22:03.300Z,5.12
2018-09-24T22:24:37.905Z,5.12
2018-09-24T22:29:48.290Z,5.05
2018-09-24T22:35:03.420Z,4.97
2018-09-24T22:37:38.061Z,5.02
2018-09-24T22:42:48.384Z,5.07
2018-09-24T22:45:23.942Z,5.12
2018-09-24T22:47:58.350Z,5.11
2018-09-24T22:50:32.774Z,5.07
2018-09-24T22:53:07.200Z,5.06
2018-09-24T22:55:43.743Z,5.09
2018-09-24T22:58:18.564Z,5.05
2018-09-24T23:00:53.196Z,4.95
2018-09-24T23:03:29.780Z,4.88
2018-09-24T23:06:04.455Z,4.79
2018-09-24T23:08:39.225Z,4.71
2018-09-24T23:13:53.293Z,4.91
2018-09-24T23:19:03.440Z,4.61
2018-09-24T23:21:37.912Z,4.58
2018-09-24T23:24:12.392Z,4.58
2018-09-24T23:29:22.504Z,4.58
2018-09-24T23:31:56.967Z,4.50
2018-09-24T23:39:48.590Z,4.66
2018-09-24T23:42:23.079Z,4.56
2018-09-24T23:44:57.626Z,4.52
2018-09-24T23:47:32.083Z,4.40
2018-09-24T23:50:08.452Z,4.34
2018-09-24T23:52:43.833Z,4.37
2018-09-24T23:55:18.256Z,4.31
2018-09-24T23:57:52.642Z,4.21
